createdAt,value
2018-09-12T00:01:10.153Z,19.58
2018-09-12T00:03:38.748Z,19.57
2018-09-12T00:06:13.870Z,19.56
2018-09-12T00:08:42.694Z,19.57
2018-09-12T00:11:11.292Z,19.57
2018-09-12T00:13:39.912Z,19.61
2018-09-12T00:16:08.562Z,19.64
2018-09-12T00:18:37.139Z,19.63
2018-09-12T00:21:05.995Z,19.63
2018-09-12T00:23:34.564Z,19.63
2018-09-12T00:26:03.433Z,19.63
2018-09-12T00:28:32.070Z,19.64
2018-09-12T00:31:00.664Z,19.66
2018-09-12T00:33:29.252Z,19.66
2018-09-12T00:35:57.869Z,19.65
2018-09-12T00:38:26.444Z,19.66
2018-09-12T00:40:55.043Z,19.67
2018-09-12T00:43:23.633Z,19.66
2018-09-12T00:45:52.242Z,19.65
2018-09-12T00:48:20.832Z,19.63
2018-09-12T00:50:49.451Z,19.62
2018-09-12T00:53:18.017Z,19.63
2018-09-12T00:55:46.641Z,19.63
2018-09-12T00:58:15.220Z,19.63
2018-09-12T01:00:43.822Z,19.63
2018-09-12T01:03:12.427Z,19.63
2018-09-12T01:05:41.919Z,19.64
2018-09-12T01:08:11.822Z,19.65
2018-09-12T01:10:40.483Z,19.64
2018-09-12T01:13:09.542Z,19.65
2018-09-12T01:15:38.163Z,19.65
2018-09-12T01:18:06.814Z,19.62
2018-09-12T01:20:35.390Z,19.59
2018-09-12T01:23:03.995Z,19.57
2018-09-12T01:25:32.582Z,19.52
2018-09-12T01:28:01.204Z,19.49
2018-09-12T01:30:29.773Z,19.48
2018-09-12T01:32:58.377Z,19.46
2018-09-12T01:35:26.941Z,19.45
2018-09-12T01:37:55.531Z,19.47
2018-09-12T01:40:24.109Z,19.49
2018-09-12T01:42:52.721Z,19.48
2018-09-12T01:45:21.292Z,19.46
2018-09-12T01:47:49.913Z,19.46
2018-09-12T01:50:18.473Z,19.46
2018-09-12T01:52:47.655Z,19.46
2018-09-12T01:55:16.516Z,19.44
2018-09-12T01:57:45.153Z,19.43
2018-09-12T02:00:16.896Z,19.41
2018-09-12T02:02:46.160Z,19.37
2018-09-12T02:05:14.792Z,19.34
2018-09-12T02:07:43.401Z,19.29
2018-09-12T02:10:13.239Z,19.24
2018-09-12T02:12:41.836Z,19.22
2018-09-12T02:15:10.407Z,19.21
2018-09-12T02:17:38.996Z,19.17
2018-09-12T02:20:07.627Z,19.16
2018-09-12T02:22:36.218Z,19.13
2018-09-12T02:25:04.882Z,19.11
2018-09-12T02:27:33.473Z,19.07
2018-09-12T02:30:02.035Z,19.04
2018-09-12T02:32:30.604Z,19.03
2018-09-12T02:34:59.184Z,18.99
2018-09-12T02:37:27.784Z,18.99
2018-09-12T02:39:56.456Z,18.96
2018-09-12T02:42:25.315Z,18.96
2018-09-12T02:44:53.906Z,18.96
2018-09-12T02:47:27.848Z,18.96
2018-09-12T02:49:56.421Z,18.96
2018-09-12T02:52:25.018Z,18.96
2018-09-12T02:54:53.598Z,18.97
2018-09-12T02:57:22.180Z,18.95
2018-09-12T02:59:50.818Z,18.94
2018-09-12T03:02:19.450Z,18.94
2018-09-12T03:04:48.017Z,18.95
2018-09-12T03:07:16.626Z,18.96
2018-09-12T03:09:45.200Z,18.72
2018-09-12T03:12:14.164Z,18.40
2018-09-12T03:14:42.740Z,18.14
2018-09-12T03:17:12.002Z,17.98
2018-09-12T03:19:40.573Z,17.82
2018-09-12T03:22:09.176Z,17.74
2018-09-12T03:24:37.867Z,17.65
2018-09-12T03:27:06.473Z,17.58
2018-09-12T03:29:35.058Z,17.51
2018-09-12T03:32:03.693Z,17.47
2018-09-12T03:34:32.277Z,17.45
2018-09-12T03:37:00.837Z,17.43
2018-09-12T03:39:29.433Z,17.41
2018-09-12T03:41:58.007Z,17.40
2018-09-12T03:44:26.619Z,17.33
2018-09-12T03:46:55.209Z,17.29
2018-09-12T03:49:23.797Z,17.25
2018-09-12T03:51:52.964Z,17.20
2018-09-12T03:54:21.542Z,17.16
2018-09-12T03:56:50.089Z,17.10
2018-09-12T03:59:18.669Z,17.06
2018-09-12T04:01:47.232Z,17.05
2018-09-12T04:04:15.824Z,17.02
2018-09-12T04:06:44.379Z,16.99
2018-09-12T04:09:12.961Z,16.95
2018-09-12T04:11:41.530Z,16.90
2018-09-12T04:14:10.122Z,16.87
2018-09-12T04:16:38.735Z,16.79
2018-09-12T04:19:07.297Z,16.74
2018-09-12T04:21:35.867Z,16.66
2018-09-12T04:24:04.490Z,16.59
2018-09-12T04:26:33.053Z,16.57
2018-09-12T04:29:01.652Z,16.55
2018-09-12T04:31:30.227Z,16.53
2018-09-12T04:33:58.809Z,16.52
2018-09-12T04:36:27.389Z,16.50
2018-09-12T04:38:55.955Z,16.47
2018-09-12T04:41:24.507Z,16.45
2018-09-12T04:43:53.146Z,16.42
2018-09-12T04:46:21.701Z,16.37
2018-09-12T04:48:50.309Z,16.35
2018-09-12T04:51:18.858Z,16.31
2018-09-12T04:53:47.433Z,16.31
2018-09-12T04:56:16.007Z,16.31
2018-09-12T04:58:44.584Z,16.32
2018-09-12T05:01:13.144Z,16.32
2018-09-12T05:03:41.715Z,16.31
2018-09-12T05:06:10.275Z,16.02
2018-09-12T05:08:38.846Z,15.63
2018-09-12T05:11:07.422Z,15.47
2018-09-12T05:13:36.001Z,15.37
2018-09-12T05:16:04.707Z,15.28
2018-09-12T05:18:33.311Z,15.26
2018-09-12T05:21:01.885Z,15.19
2018-09-12T05:23:30.487Z,15.07
2018-09-12T05:25:59.039Z,15.02
2018-09-12T05:28:27.681Z,15.02
2018-09-12T05:30:56.245Z,15.05
2018-09-12T05:33:25.104Z,15.04
2018-09-12T05:35:53.670Z,15.04
2018-09-12T05:38:22.283Z,15.03
2018-09-12T05:40:50.877Z,15.06
2018-09-12T05:43:19.456Z,15.10
2018-09-12T05:45:48.049Z,15.12
2018-09-12T05:48:16.689Z,15.12
2018-09-12T05:50:45.291Z,15.10
2018-09-12T05:53:13.850Z,15.07
2018-09-12T05:55:42.460Z,15.10
2018-09-12T05:58:11.013Z,15.09
2018-09-12T06:00:39.617Z,15.07
2018-09-12T06:03:08.193Z,15.07
2018-09-12T06:05:36.790Z,15.03
2018-09-12T06:08:05.390Z,14.97
2018-09-12T06:10:33.986Z,14.90
2018-09-12T06:13:02.569Z,14.89
2018-09-12T06:15:31.181Z,14.87
2018-09-12T06:17:59.755Z,14.87
2018-09-12T06:20:28.344Z,14.89
2018-09-12T06:22:56.921Z,14.90
2018-09-12T06:25:25.517Z,14.93
2018-09-12T06:27:54.125Z,14.97
2018-09-12T06:30:22.724Z,15.05
2018-09-12T06:32:51.292Z,15.09
2018-09-12T06:35:19.885Z,15.12
2018-09-12T06:37:48.480Z,15.14
2018-09-12T06:40:17.083Z,15.16
2018-09-12T06:42:45.670Z,15.05
2018-09-12T06:45:14.273Z,15.03
2018-09-12T06:47:42.844Z,15.01
2018-09-12T06:50:11.436Z,15.01
2018-09-12T06:52:40.003Z,15.01
2018-09-12T06:55:08.597Z,14.94
2018-09-12T06:57:37.160Z,14.94
2018-09-12T07:00:06.300Z,14.97
2018-09-12T07:02:34.874Z,14.98
2018-09-12T07:05:03.560Z,15.03
2018-09-12T07:07:32.172Z,15.05
2018-09-12T07:10:00.766Z,15.06
2018-09-12T07:12:29.411Z,15.01
2018-09-12T07:14:58.000Z,15.04
2018-09-12T07:17:26.558Z,15.07
2018-09-12T07:19:55.135Z,15.09
2018-09-12T07:22:23.707Z,15.07
2018-09-12T07:24:53.052Z,14.99
2018-09-12T07:27:21.630Z,14.86
2018-09-12T07:29:50.194Z,14.86
2018-09-12T07:32:18.775Z,14.90
2018-09-12T07:34:47.367Z,14.94
2018-09-12T07:37:15.932Z,14.97
2018-09-12T07:39:44.514Z,14.91
2018-09-12T07:42:13.097Z,14.91
2018-09-12T07:44:41.648Z,14.92
2018-09-12T07:47:10.238Z,14.88
2018-09-12T07:49:38.832Z,14.88
2018-09-12T07:52:07.436Z,14.80
2018-09-12T07:54:35.989Z,14.78
2018-09-12T07:57:04.580Z,14.90
2018-09-12T07:59:33.156Z,15.18
2018-09-12T08:02:01.754Z,15.55
2018-09-12T08:04:30.349Z,15.88
2018-09-12T08:06:58.936Z,15.98
2018-09-12T08:09:27.506Z,16.07
2018-09-12T08:11:56.115Z,16.42
2018-09-12T08:14:24.680Z,16.69
2018-09-12T08:16:53.299Z,16.74
2018-09-12T08:19:21.882Z,16.78
2018-09-12T08:21:50.480Z,16.96
2018-09-12T08:24:19.041Z,16.98
2018-09-12T08:26:47.695Z,17.10
2018-09-12T08:29:16.271Z,17.04
2018-09-12T08:31:44.864Z,16.95
2018-09-12T08:34:13.434Z,16.78
2018-09-12T08:36:42.038Z,16.67
2018-09-12T08:39:10.999Z,16.46
2018-09-12T08:41:39.596Z,16.22
2018-09-12T08:44:08.620Z,16.15
2018-09-12T08:46:37.258Z,16.09
2018-09-12T08:49:05.902Z,15.99
2018-09-12T08:51:34.504Z,15.86
2018-09-12T08:54:03.087Z,15.84
2018-09-12T08:56:31.684Z,15.81
2018-09-12T08:59:00.258Z,15.84
2018-09-12T09:01:28.961Z,15.86
2018-09-12T09:03:57.522Z,15.79
2018-09-12T09:06:26.191Z,15.74
2018-09-12T09:08:54.788Z,15.74
2018-09-12T09:11:23.404Z,15.77
2018-09-12T09:13:52.027Z,15.82
2018-09-12T09:16:20.628Z,15.77
2018-09-12T09:18:49.215Z,15.62
2018-09-12T09:21:17.800Z,15.56
2018-09-12T09:23:46.415Z,15.58
2018-09-12T09:26:15.024Z,15.60
2018-09-12T09:28:43.610Z,15.57
2018-09-12T09:31:12.214Z,15.50
2018-09-12T09:33:40.791Z,15.43
2018-09-12T09:36:09.391Z,15.36
2018-09-12T09:38:37.974Z,15.33
2018-09-12T09:41:06.743Z,15.30
2018-09-12T09:43:35.301Z,15.32
2018-09-12T09:46:03.884Z,15.35
2018-09-12T09:48:32.519Z,15.35
2018-09-12T09:51:01.124Z,15.39
2018-09-12T09:53:29.721Z,15.35
2018-09-12T09:55:58.352Z,15.26
2018-09-12T09:58:27.024Z,15.07
2018-09-12T10:01:00.631Z,14.93
2018-09-12T10:03:34.590Z,15.04
2018-09-12T10:06:08.285Z,15.11
2018-09-12T10:08:42.006Z,15.07
2018-09-12T10:11:10.601Z,15.15
2018-09-12T10:13:39.188Z,15.40
2018-09-12T10:16:07.789Z,15.60
2018-09-12T10:18:36.393Z,16.01
2018-09-12T10:21:04.999Z,16.40
2018-09-12T10:23:33.620Z,16.58
2018-09-12T10:26:02.192Z,16.73
2018-09-12T10:28:30.794Z,16.91
2018-09-12T10:30:59.363Z,16.96
2018-09-12T10:33:27.975Z,16.90
2018-09-12T10:35:56.556Z,16.66
2018-09-12T10:38:25.147Z,16.40
2018-09-12T10:40:53.757Z,16.09
2018-09-12T10:43:22.362Z,15.92
2018-09-12T10:45:50.940Z,16.14
2018-09-12T10:48:19.559Z,16.31
2018-09-12T10:50:48.124Z,16.43
2018-09-12T10:53:16.742Z,16.59
2018-09-12T10:55:45.311Z,16.69
2018-09-12T10:58:13.915Z,16.75
2018-09-12T11:00:42.491Z,16.74
2018-09-12T11:03:11.077Z,16.86
2018-09-12T11:05:39.658Z,17.01
2018-09-12T11:08:08.264Z,16.99
2018-09-12T11:10:36.869Z,16.84
2018-09-12T11:13:05.502Z,16.70
2018-09-12T11:15:34.074Z,16.57
2018-09-12T11:18:02.655Z,16.56
2018-09-12T11:20:31.237Z,16.57
2018-09-12T11:22:59.853Z,16.61
2018-09-12T11:25:28.454Z,16.61
2018-09-12T11:27:57.056Z,16.64
2018-09-12T11:30:25.634Z,16.52
2018-09-12T11:32:54.221Z,16.24
2018-09-12T11:35:22.766Z,16.11
2018-09-12T11:37:51.365Z,16.19
2018-09-12T11:40:19.911Z,16.30
2018-09-12T11:42:48.493Z,16.41
2018-09-12T11:45:17.051Z,16.26
2018-09-12T11:47:45.634Z,16.18
2018-09-12T11:50:14.197Z,16.21
2018-09-12T11:52:42.806Z,16.01
2018-09-12T11:55:11.360Z,16.08
2018-09-12T11:57:39.943Z,16.28
2018-09-12T12:00:08.553Z,16.59
2018-09-12T12:02:37.170Z,16.82
2018-09-12T12:05:05.814Z,16.94
2018-09-12T12:07:34.373Z,16.94
2018-09-12T12:10:03.008Z,17.05
2018-09-12T12:12:31.586Z,17.14
2018-09-12T12:15:00.168Z,17.10
2018-09-12T12:17:28.725Z,16.87
2018-09-12T12:19:57.314Z,16.63
2018-09-12T12:22:25.878Z,16.42
2018-09-12T12:24:54.477Z,16.29
2018-09-12T12:27:23.065Z,16.23
2018-09-12T12:29:51.650Z,16.21
2018-09-12T12:32:20.287Z,16.25
2018-09-12T12:34:48.877Z,16.20
2018-09-12T12:37:17.439Z,16.08
2018-09-12T12:39:46.029Z,15.98
2018-09-12T12:42:14.608Z,15.98
2018-09-12T12:44:43.203Z,15.93
2018-09-12T12:47:12.751Z,15.89
2018-09-12T12:49:41.379Z,15.86
2018-09-12T12:52:10.003Z,15.92
2018-09-12T12:54:38.651Z,16.10
2018-09-12T12:57:07.372Z,16.18
2018-09-12T12:59:35.968Z,16.13
2018-09-12T13:02:04.531Z,15.96
2018-09-12T13:04:33.126Z,15.86
2018-09-12T13:07:01.723Z,15.83
2018-09-12T13:09:30.296Z,15.79
2018-09-12T13:11:58.861Z,15.71
2018-09-12T13:14:27.463Z,15.75
2018-09-12T13:16:56.030Z,15.91
2018-09-12T13:19:24.617Z,16.14
2018-09-12T13:21:53.245Z,16.20
2018-09-12T13:24:21.788Z,16.33
2018-09-12T13:26:50.344Z,16.30
2018-09-12T13:29:18.983Z,16.21
2018-09-12T13:31:47.540Z,16.02
2018-09-12T13:34:16.144Z,15.87
2018-09-12T13:36:44.735Z,15.98
2018-09-12T13:39:15.986Z,16.14
2018-09-12T13:41:44.553Z,16.20
2018-09-12T13:44:13.141Z,16.22
2018-09-12T13:46:41.705Z,16.26
2018-09-12T13:49:10.291Z,16.33
2018-09-12T13:51:38.868Z,16.44
2018-09-12T13:54:07.502Z,16.55
2018-09-12T13:56:36.119Z,16.71
2018-09-12T13:59:04.753Z,16.90
2018-09-12T14:01:33.330Z,17.10
2018-09-12T14:04:01.942Z,16.96
2018-09-12T14:06:30.521Z,16.62
2018-09-12T14:08:59.276Z,16.49
2018-09-12T14:11:27.795Z,16.47
2018-09-12T14:13:56.424Z,16.53
2018-09-12T14:16:25.020Z,16.54
2018-09-12T14:18:53.593Z,16.46
2018-09-12T14:21:22.186Z,16.44
2018-09-12T14:23:50.768Z,16.58
2018-09-12T14:26:19.380Z,16.59
2018-09-12T14:28:48.026Z,16.73
2018-09-12T14:31:16.689Z,16.96
2018-09-12T14:33:45.265Z,17.17
2018-09-12T14:36:13.848Z,17.19
2018-09-12T14:38:42.508Z,17.00
2018-09-12T14:41:11.102Z,16.80
2018-09-12T14:43:39.671Z,16.57
2018-09-12T14:46:08.626Z,16.44
2018-09-12T14:48:37.205Z,16.48
2018-09-12T14:51:06.033Z,16.53
2018-09-12T14:53:34.609Z,16.49
2018-09-12T14:56:03.201Z,16.48
2018-09-12T14:58:31.816Z,16.46
2018-09-12T15:01:00.412Z,16.46
2018-09-12T15:03:28.985Z,16.52
2018-09-12T15:05:57.583Z,16.66
2018-09-12T15:08:26.165Z,16.72
2018-09-12T15:10:54.763Z,16.72
2018-09-12T15:13:23.345Z,16.73
2018-09-12T15:15:51.956Z,16.60
2018-09-12T15:18:20.543Z,16.46
2018-09-12T15:20:49.148Z,16.29
2018-09-12T15:23:17.724Z,16.16
2018-09-12T15:25:46.325Z,16.09
2018-09-12T15:28:14.976Z,16.03
2018-09-12T15:30:43.574Z,16.01
2018-09-12T15:33:12.142Z,15.96
2018-09-12T15:35:40.740Z,15.95
2018-09-12T15:38:09.321Z,15.90
2018-09-12T15:40:37.914Z,15.86
2018-09-12T15:43:06.740Z,15.84
2018-09-12T15:45:35.337Z,15.85
2018-09-12T15:48:03.910Z,15.85
2018-09-12T15:50:32.506Z,15.85
2018-09-12T15:53:01.086Z,15.83
2018-09-12T15:55:29.678Z,15.74
2018-09-12T15:57:58.285Z,15.47
2018-09-12T16:00:26.895Z,15.16
2018-09-12T16:02:55.460Z,14.88
2018-09-12T16:05:24.063Z,14.73
2018-09-12T16:07:52.647Z,14.58
2018-09-12T16:10:21.235Z,14.51
2018-09-12T16:12:49.801Z,14.45
2018-09-12T16:15:18.455Z,14.41
2018-09-12T16:17:47.035Z,14.42
2018-09-12T16:20:15.603Z,14.45
2018-09-12T16:22:44.341Z,14.46
2018-09-12T16:25:12.913Z,14.49
2018-09-12T16:27:41.532Z,14.51
2018-09-12T16:30:10.101Z,14.53
2018-09-12T16:32:38.761Z,14.55
2018-09-12T16:35:07.315Z,14.54
2018-09-12T16:37:35.911Z,14.55
2018-09-12T16:43:00.469Z,14.56
2018-09-12T16:45:29.048Z,14.58
2018-09-12T16:47:57.654Z,14.59
2018-09-12T16:50:26.246Z,14.58
2018-09-12T16:52:54.869Z,14.59
2018-09-12T16:55:23.441Z,14.58
2018-09-12T16:57:52.033Z,14.57
2018-09-12T17:00:20.625Z,14.59
2018-09-12T17:02:49.263Z,14.59
2018-09-12T17:05:17.837Z,14.58
2018-09-12T17:07:46.435Z,14.57
2018-09-12T17:10:14.997Z,14.55
2018-09-12T17:12:43.593Z,14.55
2018-09-12T17:15:12.177Z,14.54
2018-09-12T17:17:40.769Z,14.52
2018-09-12T17:20:09.372Z,14.51
2018-09-12T17:22:37.961Z,14.48
2018-09-12T17:25:06.581Z,14.47
2018-09-12T17:27:35.216Z,14.46
2018-09-12T17:30:03.837Z,14.44
2018-09-12T17:32:32.485Z,14.42
2018-09-12T17:35:01.014Z,14.41
2018-09-12T17:37:29.597Z,14.37
2018-09-12T17:39:58.160Z,14.34
2018-09-12T17:42:26.770Z,14.32
2018-09-12T17:44:55.384Z,14.29
2018-09-12T17:47:23.987Z,14.25
2018-09-12T17:49:52.577Z,14.23
2018-09-12T17:52:21.171Z,14.21
2018-09-12T17:54:49.733Z,14.19
2018-09-12T17:57:18.321Z,14.18
2018-09-12T17:59:46.969Z,14.17
2018-09-12T18:02:15.611Z,14.16
2018-09-12T18:04:44.182Z,14.16
2018-09-12T18:07:12.780Z,14.15
2018-09-12T18:09:41.382Z,14.16
2018-09-12T18:12:09.979Z,14.13
2018-09-12T18:14:38.554Z,14.11
2018-09-12T18:17:07.145Z,14.10
2018-09-12T18:19:35.719Z,14.11
2018-09-12T18:22:04.335Z,14.11
2018-09-12T18:24:33.636Z,14.10
2018-09-12T18:27:02.329Z,14.08
2018-09-12T18:29:31.042Z,14.07
2018-09-12T18:31:59.626Z,14.05
2018-09-12T18:34:28.248Z,14.03
2018-09-12T18:36:56.882Z,14.02
2018-09-12T18:39:25.523Z,13.98
2018-09-12T18:41:54.068Z,13.96
2018-09-12T18:44:22.635Z,13.89
2018-09-12T18:46:51.249Z,13.85
2018-09-12T18:49:19.795Z,13.84
2018-09-12T18:51:48.372Z,13.81
2018-09-12T18:54:16.949Z,13.77
2018-09-12T18:56:45.511Z,13.75
2018-09-12T18:59:14.082Z,13.78
2018-09-12T19:01:42.632Z,13.82
2018-09-12T19:04:11.205Z,13.81
2018-09-12T19:06:39.808Z,13.80
2018-09-12T19:09:09.990Z,13.81
2018-09-12T19:11:38.545Z,13.82
2018-09-12T19:14:07.135Z,13.79
2018-09-12T19:16:35.700Z,13.76
2018-09-12T19:19:04.293Z,13.74
2018-09-12T19:21:32.866Z,13.74
2018-09-12T19:24:01.493Z,13.77
2018-09-12T19:26:30.137Z,13.77
2018-09-12T19:28:58.728Z,13.73
2018-09-12T19:31:27.310Z,13.71
2018-09-12T19:33:55.949Z,13.68
2018-09-12T19:36:24.503Z,13.64
2018-09-12T19:38:53.114Z,13.60
2018-09-12T19:41:21.681Z,13.56
2018-09-12T19:43:50.270Z,13.51
2018-09-12T19:46:18.883Z,13.47
2018-09-12T19:48:47.481Z,13.45
2018-09-12T19:51:17.162Z,13.42
2018-09-12T19:53:46.173Z,13.40
2018-09-12T19:56:15.477Z,13.35
2018-09-12T19:58:44.932Z,13.32
2018-09-12T20:01:13.550Z,13.26
2018-09-12T20:03:42.147Z,13.22
2018-09-12T20:06:10.730Z,13.16
2018-09-12T20:08:39.324Z,13.12
2018-09-12T20:11:08.044Z,13.08
2018-09-12T20:13:36.668Z,13.05
2018-09-12T20:16:05.257Z,13.03
2018-09-12T20:18:34.222Z,12.97
2018-09-12T20:21:02.845Z,12.94
2018-09-12T20:23:31.456Z,12.88
2018-09-12T20:26:00.064Z,12.86
2018-09-12T20:28:28.704Z,12.78
2018-09-12T20:30:57.274Z,12.75
2018-09-12T20:33:26.189Z,12.69
2018-09-12T20:35:54.786Z,12.67
2018-09-12T20:38:23.364Z,12.61
2018-09-12T20:40:51.923Z,12.58
2018-09-12T20:43:20.492Z,12.58
2018-09-12T20:45:49.057Z,12.59
2018-09-12T20:48:17.663Z,12.55
2018-09-12T20:50:46.231Z,12.51
2018-09-12T20:53:14.803Z,12.51
2018-09-12T20:55:43.373Z,12.52
2018-09-12T20:58:11.922Z,12.53
2018-09-12T21:00:40.511Z,12.57
2018-09-12T21:03:09.061Z,12.56
2018-09-12T21:05:37.649Z,12.55
2018-09-12T21:08:06.228Z,12.54
2018-09-12T21:10:34.800Z,12.49
2018-09-12T21:13:03.353Z,12.48
2018-09-12T21:15:31.940Z,12.47
2018-09-12T21:18:00.575Z,12.45
2018-09-12T21:20:29.160Z,12.43
2018-09-12T21:22:57.729Z,12.41
2018-09-12T21:25:26.311Z,12.40
2018-09-12T21:27:54.889Z,12.40
2018-09-12T21:30:23.481Z,12.38
2018-09-12T21:32:52.037Z,12.33
2018-09-12T21:35:20.614Z,12.26
2018-09-12T21:37:49.180Z,12.23
2018-09-12T21:40:17.760Z,12.20
2018-09-12T21:42:46.306Z,12.19
2018-09-12T21:45:14.916Z,12.14
2018-09-12T21:47:43.456Z,12.07
2018-09-12T21:50:12.033Z,12.01
2018-09-12T21:52:40.600Z,11.98
2018-09-12T21:55:09.199Z,11.97
2018-09-12T21:57:37.765Z,11.98
2018-09-12T22:00:06.765Z,11.96
2018-09-12T22:02:35.376Z,11.99
2018-09-12T22:05:03.969Z,11.98
2018-09-12T22:07:32.517Z,11.97
2018-09-12T22:10:01.116Z,11.98
2018-09-12T22:12:29.651Z,11.97
2018-09-12T22:14:58.324Z,11.96
2018-09-12T22:17:26.874Z,11.94
2018-09-12T22:19:55.450Z,11.94
2018-09-12T22:22:24.045Z,11.92
2018-09-12T22:24:52.625Z,11.86
2018-09-12T22:27:21.185Z,11.83
2018-09-12T22:29:49.795Z,11.82
2018-09-12T22:32:18.377Z,11.84
2018-09-12T22:34:46.967Z,11.81
2018-09-12T22:37:15.525Z,11.82
2018-09-12T22:39:44.117Z,11.81
2018-09-12T22:42:12.684Z,11.80
2018-09-12T22:44:41.257Z,11.80
2018-09-12T22:47:09.863Z,11.79
2018-09-12T22:49:38.440Z,11.79
2018-09-12T22:52:07.201Z,11.81
2018-09-12T22:54:35.773Z,11.85
2018-09-12T22:57:04.381Z,11.88
2018-09-12T22:59:32.952Z,11.89
2018-09-12T23:02:01.570Z,11.85
2018-09-12T23:04:30.137Z,11.80
2018-09-12T23:06:58.734Z,11.72
2018-09-12T23:09:27.309Z,11.71
2018-09-12T23:11:55.912Z,11.70
2018-09-12T23:14:24.484Z,11.66
2018-09-12T23:16:53.131Z,11.63
2018-09-12T23:19:21.660Z,11.58
2018-09-12T23:21:50.331Z,11.55
2018-09-12T23:24:18.904Z,11.56
2018-09-12T23:26:47.481Z,11.58
2018-09-12T23:29:16.197Z,11.61
2018-09-12T23:31:44.796Z,11.62
2018-09-12T23:34:13.348Z,11.64
2018-09-12T23:36:41.932Z,11.63
2018-09-12T23:39:12.532Z,11.62
2018-09-12T23:41:41.570Z,11.61
2018-09-12T23:44:10.750Z,11.62
2018-09-12T23:46:39.457Z,11.63
2018-09-12T23:49:09.014Z,11.63
2018-09-12T23:51:37.928Z,11.64
2018-09-12T23:54:06.808Z,11.63
2018-09-12T23:56:35.450Z,11.62
2018-09-12T23:59:04.041Z,11.59
